createdAt,value
2019-03-01T00:01:31.211Z,14.27
2019-03-01T00:04:48.150Z,14.90
2019-03-01T00:08:16.671Z,14.17
2019-03-01T00:11:36.354Z,14.70
2019-03-01T00:15:02.431Z,13.90
2019-03-01T00:18:20.927Z,15.10
2019-03-01T00:21:40.768Z,15.60
2019-03-01T00:25:44.752Z,14.23
2019-03-01T00:29:26.014Z,14.27
2019-03-01T00:32:50.573Z,13.30
2019-03-01T00:36:33.198Z,13.87
2019-03-01T00:40:18.450Z,11.87
2019-03-01T00:43:36.188Z,12.20
2019-03-01T00:46:40.495Z,11.27
2019-03-01T00:49:44.971Z,10.43
2019-03-01T00:52:51.566Z,12.33
2019-03-01T00:55:55.903Z,14.30
2019-03-01T00:59:00.201Z,11.23
2019-03-01T01:02:04.942Z,11.47
2019-03-01T01:05:09.374Z,11.03
2019-03-01T01:08:13.723Z,10.20
2019-03-01T01:11:18.022Z,9.77
2019-03-01T01:14:22.734Z,10.43
2019-03-01T01:17:27.443Z,10.30
2019-03-01T01:20:31.886Z,9.57
2019-03-01T01:23:36.694Z,9.53
2019-03-01T01:26:41.756Z,8.67
2019-03-01T01:29:46.554Z,7.97
2019-03-01T01:32:51.285Z,7.90
2019-03-01T01:35:56.035Z,8.10
2019-03-01T01:39:01.586Z,7.03
2019-03-01T01:42:07.011Z,7.23
2019-03-01T01:45:11.988Z,7.10
2019-03-01T01:48:18.135Z,7.43
2019-03-01T01:51:22.945Z,7.33
2019-03-01T01:54:27.334Z,6.63
2019-03-01T01:57:32.037Z,7.10
2019-03-01T02:00:36.769Z,7.20
2019-03-01T02:03:41.515Z,6.50
2019-03-01T02:06:45.838Z,6.00
2019-03-01T02:09:50.148Z,5.97
2019-03-01T02:12:55.644Z,6.43
2019-03-01T02:16:19.009Z,5.83
2019-03-01T02:19:23.662Z,6.10
2019-03-01T02:22:28.419Z,5.37
2019-03-01T02:25:33.620Z,5.57
2019-03-01T02:28:39.871Z,5.47
2019-03-01T02:31:49.843Z,4.97
2019-03-01T02:34:55.350Z,5.90
2019-03-01T02:37:59.770Z,4.90
2019-03-01T02:41:04.104Z,4.60
2019-03-01T02:44:09.626Z,4.70
2019-03-01T02:47:14.019Z,4.37
2019-03-01T02:50:19.239Z,4.23
2019-03-01T02:53:24.384Z,4.40
2019-03-01T02:56:28.681Z,4.47
2019-03-01T02:59:33.057Z,4.47
2019-03-01T03:02:37.389Z,4.10
2019-03-01T03:05:59.463Z,4.20
2019-03-01T03:09:05.751Z,3.67
2019-03-01T03:12:10.107Z,4.03
2019-03-01T03:15:15.851Z,4.40
2019-03-01T03:18:20.249Z,3.60
2019-03-01T03:21:24.624Z,3.93
2019-03-01T03:24:28.984Z,3.57
2019-03-01T03:27:52.671Z,3.63
2019-03-01T03:30:57.851Z,3.60
2019-03-01T03:34:03.380Z,3.80
2019-03-01T03:37:08.467Z,3.40
2019-03-01T03:40:13.070Z,3.67
2019-03-01T03:43:19.033Z,3.83
2019-03-01T03:46:23.370Z,3.67
2019-03-01T03:49:27.708Z,3.47
2019-03-01T03:52:32.364Z,3.37
2019-03-01T03:55:36.833Z,3.50
2019-03-01T03:58:41.146Z,3.80
2019-03-01T04:01:45.523Z,3.00
2019-03-01T04:04:49.852Z,3.80
2019-03-01T04:07:54.194Z,3.10
2019-03-01T04:10:59.588Z,3.77
2019-03-01T04:14:06.478Z,3.43
2019-03-01T04:17:11.298Z,3.60
2019-03-01T04:20:17.118Z,3.60
2019-03-01T04:23:21.926Z,3.00
2019-03-01T04:26:26.607Z,3.40
2019-03-01T04:29:31.072Z,3.10
2019-03-01T04:32:35.863Z,3.00
2019-03-01T04:35:40.595Z,2.83
2019-03-01T04:38:44.878Z,3.20
2019-03-01T04:42:08.562Z,3.10
2019-03-01T04:45:13.435Z,3.03
2019-03-01T04:48:17.751Z,2.87
2019-03-01T04:51:22.496Z,2.80
2019-03-01T04:54:26.837Z,3.67
2019-03-01T04:57:32.314Z,3.13
2019-03-01T05:00:36.620Z,2.57
2019-03-01T05:03:40.927Z,4.23
2019-03-01T05:06:45.234Z,2.90
2019-03-01T05:09:49.623Z,2.53
2019-03-01T05:13:13.395Z,2.83
2019-03-01T05:16:17.759Z,2.17
2019-03-01T05:19:41.435Z,2.03
2019-03-01T05:22:45.768Z,2.10
2019-03-01T05:25:50.109Z,2.20
2019-03-01T05:28:54.758Z,2.07
2019-03-01T05:31:59.122Z,2.30
2019-03-01T05:35:03.466Z,2.57
2019-03-01T05:38:08.199Z,2.67
2019-03-01T05:41:12.518Z,2.17
2019-03-01T05:44:19.167Z,2.30
2019-03-01T05:47:23.582Z,2.30
2019-03-01T05:50:28.420Z,2.33
2019-03-01T05:53:33.859Z,2.43
2019-03-01T05:56:38.182Z,2.50
2019-03-01T05:59:42.970Z,2.27
2019-03-01T06:03:19.432Z,2.47
2019-03-01T06:06:33.913Z,2.17
2019-03-01T06:09:57.057Z,2.20
2019-03-01T06:13:25.462Z,2.20
2019-03-01T06:17:01.676Z,2.10
2019-03-01T06:20:16.285Z,1.50
2019-03-01T06:23:52.001Z,1.67
2019-03-01T06:27:32.667Z,1.60
2019-03-01T06:31:30.698Z,1.67
2019-03-01T06:35:15.068Z,1.00
2019-03-01T06:39:11.072Z,0.90
2019-03-01T06:42:40.186Z,1.00
2019-03-01T06:46:22.955Z,1.10
2019-03-01T06:49:46.465Z,1.07
2019-03-01T06:52:50.788Z,1.20
2019-03-01T06:56:03.137Z,1.30
2019-03-01T06:59:08.263Z,1.13
2019-03-01T07:02:16.754Z,0.90
2019-03-01T07:05:21.122Z,1.10
2019-03-01T07:08:25.719Z,1.00
2019-03-01T07:11:30.065Z,1.00
2019-03-01T07:14:34.711Z,1.27
2019-03-01T07:17:39.063Z,1.33
2019-03-01T07:20:43.497Z,1.30
2019-03-01T07:23:48.251Z,1.50
2019-03-01T07:26:52.613Z,1.80
2019-03-01T07:29:57.328Z,1.60
2019-03-01T07:33:01.688Z,1.83
2019-03-01T07:36:06.060Z,1.63
2019-03-01T07:39:10.702Z,1.83
2019-03-01T07:42:15.368Z,1.90
2019-03-01T07:45:19.839Z,2.00
2019-03-01T07:48:24.161Z,2.10
2019-03-01T07:51:30.760Z,2.17
2019-03-01T07:54:34.639Z,3.17
2019-03-01T07:57:39.089Z,2.70
2019-03-01T08:00:43.443Z,2.17
2019-03-01T08:03:52.278Z,2.37
2019-03-01T08:06:54.007Z,2.33
2019-03-01T08:09:58.399Z,2.60
2019-03-01T08:13:02.905Z,2.57
2019-03-01T08:16:09.122Z,2.40
2019-03-01T08:19:17.105Z,2.37
2019-03-01T08:22:20.866Z,2.60
2019-03-01T08:25:28.261Z,2.50
2019-03-01T08:28:33.407Z,2.20
2019-03-01T08:31:37.695Z,2.60
2019-03-01T08:34:44.284Z,3.73
2019-03-01T08:37:49.739Z,4.00
2019-03-01T08:40:57.229Z,5.43
2019-03-01T08:44:01.580Z,5.40
2019-03-01T08:47:07.486Z,3.90
2019-03-01T08:50:14.147Z,4.20
2019-03-01T08:53:18.469Z,3.80
2019-03-01T08:56:26.084Z,3.50
2019-03-01T08:59:32.825Z,3.13
2019-03-01T09:02:37.200Z,3.60
2019-03-01T09:05:41.519Z,3.27
2019-03-01T09:08:46.802Z,3.40
2019-03-01T09:11:52.545Z,3.53
2019-03-01T09:14:57.105Z,4.40
2019-03-01T09:18:01.867Z,4.33
2019-03-01T09:21:12.233Z,4.53
2019-03-01T09:24:14.049Z,3.90
2019-03-01T09:27:18.333Z,3.80
2019-03-01T09:30:23.678Z,3.90
2019-03-01T09:33:28.029Z,3.67
2019-03-01T09:36:46.857Z,4.00
2019-03-01T09:39:53.578Z,3.93
2019-03-01T09:42:57.319Z,4.03
2019-03-01T09:46:01.673Z,3.50
2019-03-01T09:49:06.072Z,3.67
2019-03-01T09:52:10.815Z,3.60
2019-03-01T09:55:15.185Z,3.50
2019-03-01T09:58:19.570Z,3.80
2019-03-01T10:01:24.373Z,3.90
2019-03-01T10:04:29.149Z,3.60
2019-03-01T10:07:33.784Z,3.10
2019-03-01T10:10:38.133Z,3.00
2019-03-01T10:13:44.527Z,2.90
2019-03-01T10:16:53.467Z,3.20
2019-03-01T10:19:57.695Z,2.87
2019-03-01T10:23:01.932Z,4.10
2019-03-01T10:26:06.290Z,3.87
2019-03-01T10:29:10.959Z,3.93
2019-03-01T10:32:15.716Z,3.73
2019-03-01T10:35:21.499Z,3.60
2019-03-01T10:38:27.878Z,3.13
2019-03-01T10:41:32.599Z,4.20
2019-03-01T10:44:37.309Z,3.50
2019-03-01T10:47:43.389Z,3.30
2019-03-01T10:50:48.411Z,3.40
2019-03-01T10:53:53.146Z,3.40
2019-03-01T10:56:57.531Z,3.70
2019-03-01T11:00:01.884Z,3.50
2019-03-01T11:03:07.254Z,3.63
2019-03-01T11:06:11.565Z,3.67
2019-03-01T11:09:15.964Z,4.80
2019-03-01T11:12:20.354Z,4.27
2019-03-01T11:15:25.387Z,3.87
2019-03-01T11:18:29.799Z,3.60
2019-03-01T11:21:34.461Z,3.50
2019-03-01T11:24:39.821Z,3.87
2019-03-01T11:27:46.451Z,4.60
2019-03-01T11:30:50.996Z,3.93
2019-03-01T11:33:55.322Z,4.40
2019-03-01T11:37:02.704Z,4.07
2019-03-01T11:40:08.517Z,3.07
2019-03-01T11:43:12.835Z,3.40
2019-03-01T11:46:17.133Z,4.43
2019-03-01T11:49:21.948Z,4.00
2019-03-01T11:52:26.272Z,3.50
2019-03-01T11:55:31.155Z,3.73
2019-03-01T11:58:35.883Z,3.90
2019-03-01T12:01:40.270Z,3.73
2019-03-01T12:04:44.731Z,4.10
2019-03-01T12:07:49.308Z,3.27
2019-03-01T12:10:54.282Z,3.63
2019-03-01T12:14:00.447Z,3.43
2019-03-01T12:17:05.658Z,3.67
2019-03-01T12:20:13.692Z,3.63
2019-03-01T12:23:18.115Z,3.50
2019-03-01T12:26:22.426Z,3.10
2019-03-01T12:29:28.062Z,3.57
2019-03-01T12:32:32.447Z,3.87
2019-03-01T12:35:36.852Z,3.40
2019-03-01T12:38:41.208Z,3.07
2019-03-01T12:41:45.591Z,3.20
2019-03-01T12:44:52.169Z,3.57
2019-03-01T12:47:56.184Z,3.40
2019-03-01T12:51:00.591Z,3.70
2019-03-01T12:54:05.727Z,3.17
2019-03-01T12:57:10.078Z,3.27
2019-03-01T13:00:17.474Z,3.53
2019-03-01T13:03:21.787Z,3.30
2019-03-01T13:06:26.587Z,3.53
2019-03-01T13:09:31.297Z,3.70
2019-03-01T13:12:36.024Z,3.00
2019-03-01T13:15:40.742Z,3.53
2019-03-01T13:18:47.704Z,4.70
2019-03-01T13:21:51.826Z,5.07
2019-03-01T13:24:56.180Z,5.63
2019-03-01T13:28:00.570Z,4.60
2019-03-01T13:31:08.066Z,4.20
2019-03-01T13:34:13.729Z,7.33
2019-03-01T13:37:20.186Z,5.03
2019-03-01T13:40:24.519Z,5.10
2019-03-01T13:43:29.839Z,4.57
2019-03-01T13:46:34.198Z,4.40
2019-03-01T13:49:38.613Z,3.87
2019-03-01T13:52:42.975Z,4.23
2019-03-01T13:55:47.364Z,4.30
2019-03-01T13:58:51.687Z,4.20
2019-03-01T14:01:56.034Z,4.10
2019-03-01T14:05:21.074Z,3.73
2019-03-01T14:08:26.996Z,3.60
2019-03-01T14:11:31.371Z,3.33
2019-03-01T14:14:37.980Z,3.47
2019-03-01T14:17:42.452Z,3.20
2019-03-01T14:20:46.863Z,2.77
2019-03-01T14:23:51.228Z,2.77
2019-03-01T14:26:55.617Z,2.67
2019-03-01T14:30:11.889Z,2.70
2019-03-01T14:33:16.206Z,2.40
2019-03-01T14:36:21.998Z,2.23
2019-03-01T14:39:26.363Z,2.67
2019-03-01T14:42:30.752Z,2.73
2019-03-01T14:45:35.217Z,3.03
2019-03-01T14:48:39.557Z,3.13
2019-03-01T14:51:46.502Z,3.30
2019-03-01T14:54:49.987Z,3.77
2019-03-01T14:58:01.818Z,3.80
2019-03-01T15:01:23.230Z,3.67
2019-03-01T15:04:28.875Z,3.77
2019-03-01T15:07:33.485Z,7.97
2019-03-01T15:10:37.859Z,8.47
2019-03-01T15:13:43.392Z,12.27
2019-03-01T15:16:47.742Z,5.87
2019-03-01T15:19:52.094Z,5.03
2019-03-01T15:22:57.070Z,4.40
2019-03-01T15:26:01.996Z,5.80
2019-03-01T15:29:09.354Z,4.80
2019-03-01T15:32:13.765Z,4.40
2019-03-01T15:35:18.476Z,4.70
2019-03-01T15:38:23.830Z,4.57
2019-03-01T15:41:29.785Z,4.93
2019-03-01T15:44:34.158Z,4.73
2019-03-01T15:47:39.096Z,5.03
2019-03-01T15:50:43.508Z,5.10
2019-03-01T15:53:48.180Z,5.10
2019-03-01T15:56:53.018Z,5.37
2019-03-01T15:59:58.815Z,4.40
2019-03-01T16:03:03.926Z,5.40
2019-03-01T16:06:10.492Z,4.77
2019-03-01T16:09:18.097Z,5.73
2019-03-01T16:12:23.116Z,4.60
2019-03-01T16:15:27.870Z,4.77
2019-03-01T16:18:35.439Z,3.93
2019-03-01T16:21:43.106Z,4.63
2019-03-01T16:24:47.026Z,5.60
2019-03-01T16:27:54.268Z,5.40
2019-03-01T16:30:58.954Z,5.97
2019-03-01T16:34:05.449Z,7.37
2019-03-01T16:37:09.895Z,6.63
2019-03-01T16:40:15.906Z,7.77
2019-03-01T16:43:20.351Z,7.10
2019-03-01T16:46:24.774Z,6.50
2019-03-01T16:49:29.133Z,8.10
2019-03-01T16:52:33.626Z,6.83
2019-03-01T16:55:37.952Z,8.00
2019-03-01T16:58:43.394Z,8.23
2019-03-01T17:01:49.221Z,8.57
2019-03-01T17:04:54.052Z,8.77
2019-03-01T17:08:00.147Z,9.63
2019-03-01T17:11:05.889Z,10.87
2019-03-01T17:14:10.477Z,9.17
2019-03-01T17:17:14.815Z,8.77
2019-03-01T17:20:19.153Z,9.43
2019-03-01T17:23:23.526Z,11.33
2019-03-01T17:26:29.954Z,12.13
2019-03-01T17:29:35.731Z,13.57
2019-03-01T17:32:40.485Z,11.70
2019-03-01T17:35:44.935Z,12.10
2019-03-01T17:38:49.259Z,13.33
2019-03-01T17:41:53.613Z,11.03
2019-03-01T17:44:58.038Z,10.57
2019-03-01T17:48:02.425Z,9.03
2019-03-01T17:51:07.151Z,8.97
2019-03-01T17:54:11.526Z,8.47
2019-03-01T17:57:15.861Z,9.90
2019-03-01T18:00:25.475Z,7.90
2019-03-01T18:03:30.810Z,9.43
2019-03-01T18:06:35.230Z,9.40
2019-03-01T18:09:39.986Z,16.57
2019-03-01T18:12:44.336Z,15.93
2019-03-01T18:15:49.685Z,15.80
2019-03-01T18:18:56.527Z,16.10
2019-03-01T18:22:00.874Z,14.63
2019-03-01T18:25:07.684Z,14.73
2019-03-01T18:28:12.055Z,16.23
2019-03-01T18:31:16.644Z,16.37
2019-03-01T18:34:21.092Z,17.87
2019-03-01T18:37:25.373Z,16.43
2019-03-01T18:40:30.126Z,18.57
2019-03-01T18:43:37.690Z,18.07
2019-03-01T18:46:42.014Z,17.03
2019-03-01T18:53:51.691Z,13.57
2019-03-01T18:56:56.049Z,13.30
2019-03-01T19:00:01.352Z,14.03
2019-03-01T19:03:08.285Z,12.53
2019-03-01T19:06:15.921Z,13.80
2019-03-01T19:09:18.821Z,14.07
2019-03-01T19:12:23.167Z,14.17
2019-03-01T19:15:27.579Z,14.87
2019-03-01T19:18:31.995Z,12.27
2019-03-01T19:21:36.458Z,11.83
2019-03-01T19:24:43.337Z,19.67
2019-03-01T19:27:50.484Z,11.60
2019-03-01T19:30:53.085Z,9.00
2019-03-01T19:33:58.133Z,8.60
2019-03-01T19:37:04.328Z,11.53
2019-03-01T19:40:13.378Z,8.97
2019-03-01T19:43:19.314Z,8.10
2019-03-01T19:46:24.096Z,8.23
2019-03-01T19:49:29.657Z,13.37
2019-03-01T19:52:33.999Z,9.20
2019-03-01T19:55:43.946Z,9.43
2019-03-01T19:58:49.113Z,6.60
2019-03-01T20:01:56.198Z,5.80
2019-03-01T20:05:00.386Z,8.13
2019-03-01T20:08:04.889Z,5.97
2019-03-01T20:11:10.139Z,7.00
2019-03-01T20:14:14.522Z,9.57
2019-03-01T20:17:18.943Z,7.50
2019-03-01T20:20:29.870Z,6.40
2019-03-01T20:23:32.744Z,6.70
2019-03-01T20:26:37.083Z,7.83
2019-03-01T20:29:41.449Z,7.87
2019-03-01T20:32:47.421Z,10.10
2019-03-01T20:35:54.684Z,8.43
2019-03-01T20:38:59.116Z,7.93
2019-03-01T20:42:05.557Z,7.97
2019-03-01T20:45:18.079Z,7.63
2019-03-01T20:48:25.593Z,7.87
2019-03-01T20:51:28.552Z,8.70
2019-03-01T20:54:32.893Z,8.70
2019-03-01T20:57:37.298Z,11.33
2019-03-01T21:00:42.756Z,10.13
2019-03-01T21:03:47.566Z,10.40
2019-03-01T21:06:51.958Z,10.77
2019-03-01T21:09:56.697Z,9.60
2019-03-01T21:13:01.163Z,9.60
2019-03-01T21:16:05.576Z,11.70
2019-03-01T21:19:11.081Z,9.47
2019-03-01T21:22:15.459Z,10.70
2019-03-01T21:25:20.280Z,10.13
2019-03-01T21:28:27.138Z,10.53
2019-03-01T21:31:31.751Z,9.07
2019-03-01T21:34:39.560Z,11.43
2019-03-01T21:37:46.598Z,10.10
2019-03-01T21:40:50.955Z,11.13
2019-03-01T21:43:55.373Z,9.83
2019-03-01T21:46:59.801Z,9.03
2019-03-01T21:50:07.542Z,9.17
2019-03-01T21:53:11.303Z,8.27
2019-03-01T21:56:16.089Z,9.97
2019-03-01T21:59:20.478Z,8.53
2019-03-01T22:02:25.079Z,9.20
2019-03-01T22:05:32.380Z,7.93
2019-03-01T22:08:40.546Z,8.63
2019-03-01T22:11:45.822Z,7.57
2019-03-01T22:14:51.527Z,8.17
2019-03-01T22:17:58.380Z,8.30
2019-03-01T22:21:02.750Z,8.00
2019-03-01T22:24:09.123Z,8.33
2019-03-01T22:27:25.321Z,9.43
2019-03-01T22:30:29.645Z,8.43
2019-03-01T22:33:34.115Z,7.57
2019-03-01T22:36:38.566Z,9.03
2019-03-01T22:39:42.906Z,8.10
2019-03-01T22:42:49.677Z,8.53
2019-03-01T22:45:54.737Z,9.60
2019-03-01T22:48:59.082Z,8.10
2019-03-01T22:52:03.406Z,9.03
2019-03-01T22:55:08.924Z,7.73
2019-03-01T22:58:13.746Z,8.40
2019-03-01T23:01:25.771Z,7.83
2019-03-01T23:04:30.316Z,7.10
2019-03-01T23:07:36.019Z,7.93
2019-03-01T23:10:40.674Z,6.80
2019-03-01T23:13:45.321Z,6.00
2019-03-01T23:16:50.660Z,6.43
2019-03-01T23:19:55.678Z,5.77
2019-03-01T23:23:00.881Z,5.43
2019-03-01T23:26:05.611Z,5.50
2019-03-01T23:29:09.936Z,6.47
2019-03-01T23:32:15.534Z,5.23
2019-03-01T23:35:22.751Z,5.33
2019-03-01T23:38:27.050Z,5.43
2019-03-01T23:41:31.734Z,5.20
2019-03-01T23:44:38.676Z,5.03
2019-03-01T23:47:42.305Z,4.87
2019-03-01T23:50:47.742Z,4.43
2019-03-01T23:53:52.057Z,5.00
2019-03-01T23:56:57.226Z,5.13
